sensor_id;sensor_type;location;lat;lon;timestamp;temperature;humidity
81895;DHT22;71358;45.642;13.758;2023-11-19T00:00:21;22.60;51.60
81895;DHT22;71358;45.642;13.758;2023-11-19T00:03:07;22.50;51.50
81895;DHT22;71358;45.642;13.758;2023-11-19T00:05:52;22.50;51.50
81895;DHT22;71358;45.642;13.758;2023-11-19T00:08:37;22.50;51.40
81895;DHT22;71358;45.642;13.758;2023-11-19T00:11:21;22.50;51.40
81895;DHT22;71358;45.642;13.758;2023-11-19T00:14:06;22.50;51.30
81895;DHT22;71358;45.642;13.758;2023-11-19T00:16:52;22.50;51.20
81895;DHT22;71358;45.642;13.758;2023-11-19T00:19:37;22.50;51.10
81895;DHT22;71358;45.642;13.758;2023-11-19T00:22:22;22.50;51.00
81895;DHT22;71358;45.642;13.758;2023-11-19T00:25:07;22.50;51.00
81895;DHT22;71358;45.642;13.758;2023-11-19T00:27:51;22.50;50.90
81895;DHT22;71358;45.642;13.758;2023-11-19T00:30:37;22.50;50.90
81895;DHT22;71358;45.642;13.758;2023-11-19T00:33:22;22.50;50.90
81895;DHT22;71358;45.642;13.758;2023-11-19T00:36:07;22.50;50.80
81895;DHT22;71358;45.642;13.758;2023-11-19T00:38:52;22.50;50.60
81895;DHT22;71358;45.642;13.758;2023-11-19T00:41:37;22.50;50.40
81895;DHT22;71358;45.642;13.758;2023-11-19T00:44:21;22.50;50.30
81895;DHT22;71358;45.642;13.758;2023-11-19T00:47:06;22.50;50.20
81895;DHT22;71358;45.642;13.758;2023-11-19T00:49:50;22.50;50.30
81895;DHT22;71358;45.642;13.758;2023-11-19T00:52:35;22.50;50.20
81895;DHT22;71358;45.642;13.758;2023-11-19T00:55:21;22.50;50.30
81895;DHT22;71358;45.642;13.758;2023-11-19T00:58:05;22.50;50.30
81895;DHT22;71358;45.642;13.758;2023-11-19T01:00:50;22.50;50.30
81895;DHT22;71358;45.642;13.758;2023-11-19T01:03:35;22.50;50.20
81895;DHT22;71358;45.642;13.758;2023-11-19T01:09:13;22.50;50.10
81895;DHT22;71358;45.642;13.758;2023-11-19T01:11:58;22.40;50.00
81895;DHT22;71358;45.642;13.758;2023-11-19T01:14:44;22.40;50.00
81895;DHT22;71358;45.642;13.758;2023-11-19T01:17:29;22.40;50.00
81895;DHT22;71358;45.642;13.758;2023-11-19T01:20:15;22.40;50.00
81895;DHT22;71358;45.642;13.758;2023-11-19T01:23:00;22.40;50.00
81895;DHT22;71358;45.642;13.758;2023-11-19T01:25:46;22.40;49.90
81895;DHT22;71358;45.642;13.758;2023-11-19T01:28:30;22.40;49.80
81895;DHT22;71358;45.642;13.758;2023-11-19T01:31:15;22.40;49.70
81895;DHT22;71358;45.642;13.758;2023-11-19T01:34:00;22.40;49.80
81895;DHT22;71358;45.642;13.758;2023-11-19T01:36:46;22.40;49.70
81895;DHT22;71358;45.642;13.758;2023-11-19T01:39:30;22.40;49.70
81895;DHT22;71358;45.642;13.758;2023-11-19T01:42:15;22.40;49.70
81895;DHT22;71358;45.642;13.758;2023-11-19T01:45:00;22.40;49.60
81895;DHT22;71358;45.642;13.758;2023-11-19T01:47:45;22.40;49.60
81895;DHT22;71358;45.642;13.758;2023-11-19T01:50:30;22.40;49.50
81895;DHT22;71358;45.642;13.758;2023-11-19T01:53:14;22.30;49.40
81895;DHT22;71358;45.642;13.758;2023-11-19T01:55:59;22.30;49.30
81895;DHT22;71358;45.642;13.758;2023-11-19T01:58:45;22.30;49.30
81895;DHT22;71358;45.642;13.758;2023-11-19T02:01:30;22.30;49.20
81895;DHT22;71358;45.642;13.758;2023-11-19T02:04:18;22.30;49.10
81895;DHT22;71358;45.642;13.758;2023-11-19T02:07:03;22.30;49.10
81895;DHT22;71358;45.642;13.758;2023-11-19T02:09:47;22.30;49.00
81895;DHT22;71358;45.642;13.758;2023-11-19T02:12:32;22.30;49.00
81895;DHT22;71358;45.642;13.758;2023-11-19T02:15:20;22.30;49.00
81895;DHT22;71358;45.642;13.758;2023-11-19T02:21:03;22.30;48.90
81895;DHT22;71358;45.642;13.758;2023-11-19T02:23:49;22.30;48.80
81895;DHT22;71358;45.642;13.758;2023-11-19T02:26:52;22.30;48.80
81895;DHT22;71358;45.642;13.758;2023-11-19T02:29:40;22.30;48.70
81895;DHT22;71358;45.642;13.758;2023-11-19T02:32:27;22.30;48.80
81895;DHT22;71358;45.642;13.758;2023-11-19T02:35:15;22.30;48.70
81895;DHT22;71358;45.642;13.758;2023-11-19T02:37:59;22.30;48.60
81895;DHT22;71358;45.642;13.758;2023-11-19T02:40:48;22.30;48.60
81895;DHT22;71358;45.642;13.758;2023-11-19T02:43:34;22.30;48.50
81895;DHT22;71358;45.642;13.758;2023-11-19T02:46:19;22.30;48.50
81895;DHT22;71358;45.642;13.758;2023-11-19T02:49:03;22.30;48.50
81895;DHT22;71358;45.642;13.758;2023-11-19T02:51:48;22.30;48.50
81895;DHT22;71358;45.642;13.758;2023-11-19T02:54:32;22.20;48.40
81895;DHT22;71358;45.642;13.758;2023-11-19T02:57:18;22.20;48.40
81895;DHT22;71358;45.642;13.758;2023-11-19T03:00:05;22.20;48.50
81895;DHT22;71358;45.642;13.758;2023-11-19T03:02:56;22.20;48.40
81895;DHT22;71358;45.642;13.758;2023-11-19T03:05:44;22.20;48.50
81895;DHT22;71358;45.642;13.758;2023-11-19T03:08:29;22.20;48.40
81895;DHT22;71358;45.642;13.758;2023-11-19T03:11:14;22.20;48.40
81895;DHT22;71358;45.642;13.758;2023-11-19T03:13:59;22.20;48.40
81895;DHT22;71358;45.642;13.758;2023-11-19T03:16:46;22.20;48.30
81895;DHT22;71358;45.642;13.758;2023-11-19T03:19:31;22.20;48.30
81895;DHT22;71358;45.642;13.758;2023-11-19T03:22:15;22.20;48.40
81895;DHT22;71358;45.642;13.758;2023-11-19T03:25:00;22.20;48.30
81895;DHT22;71358;45.642;13.758;2023-11-19T03:27:44;22.20;48.20
81895;DHT22;71358;45.642;13.758;2023-11-19T03:30:30;22.20;48.20
81895;DHT22;71358;45.642;13.758;2023-11-19T03:33:14;22.20;48.20
81895;DHT22;71358;45.642;13.758;2023-11-19T03:35:59;22.20;48.20
81895;DHT22;71358;45.642;13.758;2023-11-19T03:38:43;22.20;48.20
81895;DHT22;71358;45.642;13.758;2023-11-19T03:41:28;22.20;48.20
81895;DHT22;71358;45.642;13.758;2023-11-19T03:44:12;22.20;48.10
81895;DHT22;71358;45.642;13.758;2023-11-19T03:46:57;22.20;48.00
81895;DHT22;71358;45.642;13.758;2023-11-19T03:49:41;22.20;48.20
81895;DHT22;71358;45.642;13.758;2023-11-19T03:52:26;22.20;48.30
81895;DHT22;71358;45.642;13.758;2023-11-19T03:55:13;22.20;48.30
81895;DHT22;71358;45.642;13.758;2023-11-19T03:57:58;22.20;48.20
81895;DHT22;71358;45.642;13.758;2023-11-19T04:00:42;22.20;48.20
81895;DHT22;71358;45.642;13.758;2023-11-19T04:03:27;22.20;48.10
81895;DHT22;71358;45.642;13.758;2023-11-19T04:06:11;22.20;48.10
81895;DHT22;71358;45.642;13.758;2023-11-19T04:08:56;22.20;48.10
81895;DHT22;71358;45.642;13.758;2023-11-19T04:11:41;22.20;48.10
81895;DHT22;71358;45.642;13.758;2023-11-19T04:14:26;22.20;48.10
81895;DHT22;71358;45.642;13.758;2023-11-19T04:17:10;22.20;48.10
81895;DHT22;71358;45.642;13.758;2023-11-19T04:19:55;22.20;48.10
81895;DHT22;71358;45.642;13.758;2023-11-19T04:22:39;22.20;48.10
81895;DHT22;71358;45.642;13.758;2023-11-19T04:25:25;22.20;48.10
81895;DHT22;71358;45.642;13.758;2023-11-19T04:28:10;22.20;48.10
81895;DHT22;71358;45.642;13.758;2023-11-19T04:30:55;22.20;48.00
81895;DHT22;71358;45.642;13.758;2023-11-19T04:33:40;22.20;48.10
81895;DHT22;71358;45.642;13.758;2023-11-19T04:36:25;22.20;48.10
81895;DHT22;71358;45.642;13.758;2023-11-19T04:39:09;22.20;48.20
81895;DHT22;71358;45.642;13.758;2023-11-19T04:41:58;22.20;48.10
81895;DHT22;71358;45.642;13.758;2023-11-19T04:44:43;22.20;48.20
81895;DHT22;71358;45.642;13.758;2023-11-19T04:47:28;22.20;48.20
81895;DHT22;71358;45.642;13.758;2023-11-19T04:50:12;22.20;48.30
81895;DHT22;71358;45.642;13.758;2023-11-19T04:52:57;22.10;48.20
81895;DHT22;71358;45.642;13.758;2023-11-19T04:55:42;22.20;48.20
81895;DHT22;71358;45.642;13.758;2023-11-19T04:58:29;22.20;48.90
81895;DHT22;71358;45.642;13.758;2023-11-19T05:01:14;22.10;48.10
81895;DHT22;71358;45.642;13.758;2023-11-19T05:04:02;22.20;48.20
81895;DHT22;71358;45.642;13.758;2023-11-19T05:06:46;22.10;48.00
81895;DHT22;71358;45.642;13.758;2023-11-19T05:09:31;22.20;48.10
81895;DHT22;71358;45.642;13.758;2023-11-19T05:12:15;22.10;48.10
81895;DHT22;71358;45.642;13.758;2023-11-19T05:15:00;22.10;48.10
81895;DHT22;71358;45.642;13.758;2023-11-19T05:17:44;22.10;48.10
81895;DHT22;71358;45.642;13.758;2023-11-19T05:20:29;22.10;48.10
81895;DHT22;71358;45.642;13.758;2023-11-19T05:23:13;22.10;48.80
81895;DHT22;71358;45.642;13.758;2023-11-19T05:25:58;22.10;48.10
81895;DHT22;71358;45.642;13.758;2023-11-19T05:28:43;22.10;48.10
81895;DHT22;71358;45.642;13.758;2023-11-19T05:31:27;22.10;48.00
81895;DHT22;71358;45.642;13.758;2023-11-19T05:34:12;22.10;48.10
81895;DHT22;71358;45.642;13.758;2023-11-19T05:36:59;22.10;48.20
81895;DHT22;71358;45.642;13.758;2023-11-19T05:39:45;22.10;48.20
81895;DHT22;71358;45.642;13.758;2023-11-19T05:42:30;22.10;48.20
81895;DHT22;71358;45.642;13.758;2023-11-19T05:45:14;22.10;48.20
81895;DHT22;71358;45.642;13.758;2023-11-19T05:47:59;22.10;48.30
81895;DHT22;71358;45.642;13.758;2023-11-19T05:50:43;22.10;48.30
81895;DHT22;71358;45.642;13.758;2023-11-19T05:53:28;22.10;48.30
81895;DHT22;71358;45.642;13.758;2023-11-19T05:56:13;22.10;48.30
81895;DHT22;71358;45.642;13.758;2023-11-19T05:59:00;22.10;48.30
81895;DHT22;71358;45.642;13.758;2023-11-19T06:01:45;22.10;48.40
81895;DHT22;71358;45.642;13.758;2023-11-19T06:04:30;22.10;48.40
81895;DHT22;71358;45.642;13.758;2023-11-19T06:07:14;22.10;48.40
81895;DHT22;71358;45.642;13.758;2023-11-19T06:09:59;22.10;48.40
81895;DHT22;71358;45.642;13.758;2023-11-19T06:12:45;22.10;48.40
81895;DHT22;71358;45.642;13.758;2023-11-19T06:15:30;22.10;48.40
81895;DHT22;71358;45.642;13.758;2023-11-19T06:18:15;22.10;48.40
81895;DHT22;71358;45.642;13.758;2023-11-19T06:21:00;22.10;48.40
81895;DHT22;71358;45.642;13.758;2023-11-19T06:23:44;22.10;48.40
81895;DHT22;71358;45.642;13.758;2023-11-19T06:26:29;22.10;48.50
81895;DHT22;71358;45.642;13.758;2023-11-19T06:29:14;22.10;48.50
81895;DHT22;71358;45.642;13.758;2023-11-19T06:32:02;22.10;48.50
81895;DHT22;71358;45.642;13.758;2023-11-19T06:34:47;22.10;48.50
81895;DHT22;71358;45.642;13.758;2023-11-19T06:37:31;22.00;48.50
81895;DHT22;71358;45.642;13.758;2023-11-19T06:40:16;22.10;48.50
81895;DHT22;71358;45.642;13.758;2023-11-19T06:43:01;22.10;48.60
81895;DHT22;71358;45.642;13.758;2023-11-19T06:45:47;22.00;48.60
81895;DHT22;71358;45.642;13.758;2023-11-19T06:48:32;22.00;48.60
81895;DHT22;71358;45.642;13.758;2023-11-19T06:51:17;22.00;48.60
81895;DHT22;71358;45.642;13.758;2023-11-19T06:54:02;22.00;48.70
81895;DHT22;71358;45.642;13.758;2023-11-19T06:56:46;22.00;48.70
81895;DHT22;71358;45.642;13.758;2023-11-19T06:59:31;22.00;48.70
81895;DHT22;71358;45.642;13.758;2023-11-19T07:02:15;22.00;48.70
81895;DHT22;71358;45.642;13.758;2023-11-19T07:05:00;22.00;48.70
81895;DHT22;71358;45.642;13.758;2023-11-19T07:07:44;22.00;48.70
81895;DHT22;71358;45.642;13.758;2023-11-19T07:10:31;22.00;49.40
81895;DHT22;71358;45.642;13.758;2023-11-19T07:13:15;22.00;48.70
81895;DHT22;71358;45.642;13.758;2023-11-19T07:16:00;22.00;48.80
81895;DHT22;71358;45.642;13.758;2023-11-19T07:18:44;22.10;48.80
81895;DHT22;71358;45.642;13.758;2023-11-19T07:21:29;22.00;48.80
81895;DHT22;71358;45.642;13.758;2023-11-19T07:24:13;22.00;48.70
81895;DHT22;71358;45.642;13.758;2023-11-19T07:26:58;22.00;48.80
81895;DHT22;71358;45.642;13.758;2023-11-19T07:29:43;22.00;48.80
81895;DHT22;71358;45.642;13.758;2023-11-19T07:32:28;22.00;48.90
81895;DHT22;71358;45.642;13.758;2023-11-19T07:35:13;22.00;48.80
81895;DHT22;71358;45.642;13.758;2023-11-19T07:37:58;22.00;48.80
81895;DHT22;71358;45.642;13.758;2023-11-19T07:40:42;22.00;48.80
81895;DHT22;71358;45.642;13.758;2023-11-19T07:43:27;22.00;48.80
81895;DHT22;71358;45.642;13.758;2023-11-19T07:46:13;22.00;48.90
81895;DHT22;71358;45.642;13.758;2023-11-19T07:48:57;22.00;49.00
81895;DHT22;71358;45.642;13.758;2023-11-19T07:51:42;22.00;49.00
81895;DHT22;71358;45.642;13.758;2023-11-19T07:54:27;22.00;49.00
81895;DHT22;71358;45.642;13.758;2023-11-19T07:57:12;22.00;49.10
81895;DHT22;71358;45.642;13.758;2023-11-19T07:59:57;22.00;49.20
81895;DHT22;71358;45.642;13.758;2023-11-19T08:02:42;22.00;49.20
81895;DHT22;71358;45.642;13.758;2023-11-19T08:05:26;22.00;49.30
81895;DHT22;71358;45.642;13.758;2023-11-19T08:08:11;22.10;49.30
81895;DHT22;71358;45.642;13.758;2023-11-19T08:10:56;22.10;49.40
81895;DHT22;71358;45.642;13.758;2023-11-19T08:13:40;22.20;49.40
81895;DHT22;71358;45.642;13.758;2023-11-19T08:16:25;22.20;49.30
81895;DHT22;71358;45.642;13.758;2023-11-19T08:19:09;22.20;49.30
81895;DHT22;71358;45.642;13.758;2023-11-19T08:21:54;22.20;49.20
81895;DHT22;71358;45.642;13.758;2023-11-19T08:24:38;22.30;49.20
81895;DHT22;71358;45.642;13.758;2023-11-19T08:27:23;22.30;49.20
81895;DHT22;71358;45.642;13.758;2023-11-19T08:30:11;22.30;49.10
81895;DHT22;71358;45.642;13.758;2023-11-19T08:32:55;22.30;49.10
81895;DHT22;71358;45.642;13.758;2023-11-19T08:35:41;22.30;49.20
81895;DHT22;71358;45.642;13.758;2023-11-19T08:38:25;22.20;49.20
81895;DHT22;71358;45.642;13.758;2023-11-19T08:41:10;22.20;49.20
81895;DHT22;71358;45.642;13.758;2023-11-19T08:43:54;22.20;49.30
81895;DHT22;71358;45.642;13.758;2023-11-19T08:46:45;22.20;49.30
81895;DHT22;71358;45.642;13.758;2023-11-19T08:49:30;22.20;49.40
81895;DHT22;71358;45.642;13.758;2023-11-19T08:52:14;22.20;49.40
81895;DHT22;71358;45.642;13.758;2023-11-19T08:55:01;22.20;49.40
81895;DHT22;71358;45.642;13.758;2023-11-19T08:57:46;22.20;49.40
81895;DHT22;71358;45.642;13.758;2023-11-19T09:00:30;22.20;49.30
81895;DHT22;71358;45.642;13.758;2023-11-19T09:03:16;22.20;49.30
81895;DHT22;71358;45.642;13.758;2023-11-19T09:06:01;22.10;49.30
81895;DHT22;71358;45.642;13.758;2023-11-19T09:08:45;22.10;49.30
81895;DHT22;71358;45.642;13.758;2023-11-19T09:11:30;22.10;49.30
81895;DHT22;71358;45.642;13.758;2023-11-19T09:14:14;22.10;49.30
81895;DHT22;71358;45.642;13.758;2023-11-19T09:16:59;22.10;49.30
81895;DHT22;71358;45.642;13.758;2023-11-19T09:19:44;22.10;49.30
81895;DHT22;71358;45.642;13.758;2023-11-19T09:22:28;22.10;49.40
81895;DHT22;71358;45.642;13.758;2023-11-19T09:25:13;22.10;49.40
81895;DHT22;71358;45.642;13.758;2023-11-19T09:28:00;22.10;49.40
81895;DHT22;71358;45.642;13.758;2023-11-19T09:30:45;22.10;49.40
81895;DHT22;71358;45.642;13.758;2023-11-19T09:33:30;22.10;49.40
81895;DHT22;71358;45.642;13.758;2023-11-19T09:36:15;22.10;49.50
81895;DHT22;71358;45.642;13.758;2023-11-19T09:39:01;22.10;49.60
81895;DHT22;71358;45.642;13.758;2023-11-19T09:41:46;22.10;49.70
81895;DHT22;71358;45.642;13.758;2023-11-19T09:44:30;22.10;49.70
81895;DHT22;71358;45.642;13.758;2023-11-19T09:47:17;22.10;49.80
81895;DHT22;71358;45.642;13.758;2023-11-19T09:50:02;22.10;49.80
81895;DHT22;71358;45.642;13.758;2023-11-19T09:52:47;22.10;49.90
81895;DHT22;71358;45.642;13.758;2023-11-19T09:55:31;22.10;49.90
81895;DHT22;71358;45.642;13.758;2023-11-19T09:58:16;22.10;50.00
81895;DHT22;71358;45.642;13.758;2023-11-19T10:01:01;22.10;50.00
81895;DHT22;71358;45.642;13.758;2023-11-19T10:03:54;22.10;50.10
81895;DHT22;71358;45.642;13.758;2023-11-19T10:06:39;22.10;50.20
81895;DHT22;71358;45.642;13.758;2023-11-19T10:09:23;22.10;50.30
81895;DHT22;71358;45.642;13.758;2023-11-19T10:12:08;22.10;50.40
81895;DHT22;71358;45.642;13.758;2023-11-19T10:14:55;22.10;50.50
81895;DHT22;71358;45.642;13.758;2023-11-19T10:17:41;22.10;50.60
81895;DHT22;71358;45.642;13.758;2023-11-19T10:20:25;22.10;50.70
81895;DHT22;71358;45.642;13.758;2023-11-19T10:23:10;22.10;50.80
81895;DHT22;71358;45.642;13.758;2023-11-19T10:26:02;22.10;50.90
81895;DHT22;71358;45.642;13.758;2023-11-19T10:28:49;22.10;51.00
81895;DHT22;71358;45.642;13.758;2023-11-19T10:31:33;22.10;51.10
81895;DHT22;71358;45.642;13.758;2023-11-19T10:34:27;22.10;51.10
81895;DHT22;71358;45.642;13.758;2023-11-19T10:37:30;22.20;51.30
81895;DHT22;71358;45.642;13.758;2023-11-19T10:40:19;22.20;51.40
81895;DHT22;71358;45.642;13.758;2023-11-19T10:43:04;22.20;51.50
81895;DHT22;71358;45.642;13.758;2023-11-19T10:45:49;22.20;51.60
81895;DHT22;71358;45.642;13.758;2023-11-19T10:48:33;22.20;51.60
81895;DHT22;71358;45.642;13.758;2023-11-19T10:51:19;22.20;51.60
81895;DHT22;71358;45.642;13.758;2023-11-19T10:54:09;22.20;51.70
81895;DHT22;71358;45.642;13.758;2023-11-19T10:56:59;22.20;51.80
81895;DHT22;71358;45.642;13.758;2023-11-19T10:59:45;22.20;51.80
81895;DHT22;71358;45.642;13.758;2023-11-19T11:02:35;22.20;51.90
81895;DHT22;71358;45.642;13.758;2023-11-19T11:05:21;22.20;51.90
81895;DHT22;71358;45.642;13.758;2023-11-19T11:08:06;22.20;52.00
81895;DHT22;71358;45.642;13.758;2023-11-19T11:10:55;22.20;52.00
81895;DHT22;71358;45.642;13.758;2023-11-19T11:13:42;22.20;52.00
81895;DHT22;71358;45.642;13.758;2023-11-19T11:16:27;22.20;52.00
81895;DHT22;71358;45.642;13.758;2023-11-19T11:19:13;22.20;52.20
81895;DHT22;71358;45.642;13.758;2023-11-19T11:21:57;22.20;52.20
81895;DHT22;71358;45.642;13.758;2023-11-19T11:25:02;22.20;52.10
81895;DHT22;71358;45.642;13.758;2023-11-19T11:28:56;22.20;51.80
81895;DHT22;71358;45.642;13.758;2023-11-19T11:37:49;22.20;52.10
81895;DHT22;71358;45.642;13.758;2023-11-19T11:40:34;22.20;52.20
81895;DHT22;71358;45.642;13.758;2023-11-19T11:43:44;22.20;52.20
81895;DHT22;71358;45.642;13.758;2023-11-19T11:49:28;22.20;52.60
81895;DHT22;71358;45.642;13.758;2023-11-19T11:52:13;22.20;52.70
81895;DHT22;71358;45.642;13.758;2023-11-19T11:55:04;22.20;52.80
81895;DHT22;71358;45.642;13.758;2023-11-19T11:57:52;22.30;52.80
81895;DHT22;71358;45.642;13.758;2023-11-19T12:00:40;22.20;52.80
81895;DHT22;71358;45.642;13.758;2023-11-19T12:03:28;22.30;52.80
81895;DHT22;71358;45.642;13.758;2023-11-19T12:06:14;22.30;52.70
81895;DHT22;71358;45.642;13.758;2023-11-19T12:09:01;22.30;52.70
81895;DHT22;71358;45.642;13.758;2023-11-19T12:11:47;22.30;52.90
81895;DHT22;71358;45.642;13.758;2023-11-19T12:15:07;22.30;53.10
81895;DHT22;71358;45.642;13.758;2023-11-19T12:17:54;22.30;53.20
81895;DHT22;71358;45.642;13.758;2023-11-19T12:20:39;22.30;53.20
81895;DHT22;71358;45.642;13.758;2023-11-19T12:23:24;22.30;53.30
81895;DHT22;71358;45.642;13.758;2023-11-19T12:26:26;22.30;53.40
81895;DHT22;71358;45.642;13.758;2023-11-19T12:29:15;22.40;53.40
81895;DHT22;71358;45.642;13.758;2023-11-19T12:31:59;22.30;53.30
81895;DHT22;71358;45.642;13.758;2023-11-19T12:34:47;22.30;53.30
81895;DHT22;71358;45.642;13.758;2023-11-19T12:37:32;22.30;53.40
81895;DHT22;71358;45.642;13.758;2023-11-19T12:43:06;22.40;53.80
81895;DHT22;71358;45.642;13.758;2023-11-19T12:45:50;22.40;53.90
81895;DHT22;71358;45.642;13.758;2023-11-19T12:48:35;22.40;54.00
81895;DHT22;71358;45.642;13.758;2023-11-19T12:51:19;22.40;54.20
81895;DHT22;71358;45.642;13.758;2023-11-19T12:54:04;22.40;54.40
81895;DHT22;71358;45.642;13.758;2023-11-19T12:56:54;22.40;54.70
81895;DHT22;71358;45.642;13.758;2023-11-19T12:59:39;22.40;55.00
81895;DHT22;71358;45.642;13.758;2023-11-19T13:02:44;22.40;55.10
81895;DHT22;71358;45.642;13.758;2023-11-19T13:08:15;22.40;55.30
81895;DHT22;71358;45.642;13.758;2023-11-19T13:10:59;22.50;55.30
81895;DHT22;71358;45.642;13.758;2023-11-19T13:14:16;22.40;55.30
81895;DHT22;71358;45.642;13.758;2023-11-19T13:17:01;22.50;55.40
81895;DHT22;71358;45.642;13.758;2023-11-19T13:19:47;22.40;55.40
81895;DHT22;71358;45.642;13.758;2023-11-19T13:22:32;22.50;55.50
81895;DHT22;71358;45.642;13.758;2023-11-19T13:25:16;22.40;55.50
81895;DHT22;71358;45.642;13.758;2023-11-19T13:28:01;22.50;55.50
81895;DHT22;71358;45.642;13.758;2023-11-19T13:30:46;22.50;55.50
81895;DHT22;71358;45.642;13.758;2023-11-19T13:33:31;22.50;55.50
81895;DHT22;71358;45.642;13.758;2023-11-19T13:36:15;22.50;55.40
81895;DHT22;71358;45.642;13.758;2023-11-19T13:39:00;22.50;55.40
81895;DHT22;71358;45.642;13.758;2023-11-19T13:41:45;22.50;55.40
81895;DHT22;71358;45.642;13.758;2023-11-19T13:44:29;22.40;55.40
81895;DHT22;71358;45.642;13.758;2023-11-19T13:47:14;22.40;55.40
81895;DHT22;71358;45.642;13.758;2023-11-19T13:49:58;22.50;55.50
81895;DHT22;71358;45.642;13.758;2023-11-19T13:52:44;22.40;55.40
81895;DHT22;71358;45.642;13.758;2023-11-19T13:55:31;22.50;55.40
81895;DHT22;71358;45.642;13.758;2023-11-19T13:58:16;22.50;55.30
81895;DHT22;71358;45.642;13.758;2023-11-19T14:01:00;22.50;55.30
81895;DHT22;71358;45.642;13.758;2023-11-19T14:03:47;22.50;55.30
81895;DHT22;71358;45.642;13.758;2023-11-19T14:06:31;22.50;55.30
81895;DHT22;71358;45.642;13.758;2023-11-19T14:09:16;22.50;55.30
81895;DHT22;71358;45.642;13.758;2023-11-19T14:12:00;22.50;55.70
81895;DHT22;71358;45.642;13.758;2023-11-19T14:14:45;22.50;55.70
81895;DHT22;71358;45.642;13.758;2023-11-19T14:17:29;22.50;55.50
81895;DHT22;71358;45.642;13.758;2023-11-19T14:20:14;22.50;55.50
81895;DHT22;71358;45.642;13.758;2023-11-19T14:22:59;22.40;55.30
81895;DHT22;71358;45.642;13.758;2023-11-19T14:25:44;22.50;55.40
81895;DHT22;71358;45.642;13.758;2023-11-19T14:28:29;22.50;55.40
81895;DHT22;71358;45.642;13.758;2023-11-19T14:31:15;22.50;55.30
81895;DHT22;71358;45.642;13.758;2023-11-19T14:33:59;22.50;55.30
81895;DHT22;71358;45.642;13.758;2023-11-19T14:36:44;22.50;55.30
81895;DHT22;71358;45.642;13.758;2023-11-19T14:39:29;22.40;55.20
81895;DHT22;71358;45.642;13.758;2023-11-19T14:42:15;22.50;55.20
81895;DHT22;71358;45.642;13.758;2023-11-19T14:44:59;22.50;55.20
81895;DHT22;71358;45.642;13.758;2023-11-19T14:47:44;22.50;55.20
81895;DHT22;71358;45.642;13.758;2023-11-19T14:50:28;22.40;55.10
81895;DHT22;71358;45.642;13.758;2023-11-19T14:53:13;22.50;55.10
81895;DHT22;71358;45.642;13.758;2023-11-19T14:55:58;22.50;55.10
81895;DHT22;71358;45.642;13.758;2023-11-19T14:58:43;22.50;55.00
81895;DHT22;71358;45.642;13.758;2023-11-19T15:01:28;22.50;55.00
81895;DHT22;71358;45.642;13.758;2023-11-19T15:04:15;22.40;54.90
81895;DHT22;71358;45.642;13.758;2023-11-19T15:07:00;22.50;54.90
81895;DHT22;71358;45.642;13.758;2023-11-19T15:09:44;22.40;54.90
81895;DHT22;71358;45.642;13.758;2023-11-19T15:12:29;22.40;54.90
81895;DHT22;71358;45.642;13.758;2023-11-19T15:15:14;22.40;54.80
81895;DHT22;71358;45.642;13.758;2023-11-19T15:17:58;22.50;54.80
81895;DHT22;71358;45.642;13.758;2023-11-19T15:20:43;22.40;54.80
81895;DHT22;71358;45.642;13.758;2023-11-19T15:23:31;22.40;54.70
81895;DHT22;71358;45.642;13.758;2023-11-19T15:26:15;22.40;54.60
81895;DHT22;71358;45.642;13.758;2023-11-19T15:29:00;22.40;54.60
81895;DHT22;71358;45.642;13.758;2023-11-19T15:31:44;22.40;54.40
81895;DHT22;71358;45.642;13.758;2023-11-19T15:34:29;22.40;54.40
81895;DHT22;71358;45.642;13.758;2023-11-19T15:37:14;22.40;54.30
81895;DHT22;71358;45.642;13.758;2023-11-19T15:39:59;22.40;54.20
81895;DHT22;71358;45.642;13.758;2023-11-19T15:42:44;22.40;54.20
81895;DHT22;71358;45.642;13.758;2023-11-19T15:45:30;22.40;54.10
81895;DHT22;71358;45.642;13.758;2023-11-19T15:48:14;22.30;54.00
81895;DHT22;71358;45.642;13.758;2023-11-19T15:50:58;22.40;54.00
81895;DHT22;71358;45.642;13.758;2023-11-19T15:53:43;22.40;53.90
81895;DHT22;71358;45.642;13.758;2023-11-19T15:56:27;22.30;53.80
81895;DHT22;71358;45.642;13.758;2023-11-19T15:59:12;22.40;53.80
81895;DHT22;71358;45.642;13.758;2023-11-19T16:01:56;22.30;53.70
81895;DHT22;71358;45.642;13.758;2023-11-19T16:04:41;22.30;53.60
81895;DHT22;71358;45.642;13.758;2023-11-19T16:07:26;22.30;53.60
81895;DHT22;71358;45.642;13.758;2023-11-19T16:10:10;22.30;53.50
81895;DHT22;71358;45.642;13.758;2023-11-19T16:12:56;22.30;53.50
81895;DHT22;71358;45.642;13.758;2023-11-19T16:15:41;22.30;53.50
81895;DHT22;71358;45.642;13.758;2023-11-19T16:18:25;22.30;53.50
81895;DHT22;71358;45.642;13.758;2023-11-19T16:21:11;22.30;53.40
81895;DHT22;71358;45.642;13.758;2023-11-19T16:23:56;22.30;53.40
81895;DHT22;71358;45.642;13.758;2023-11-19T16:26:40;22.30;53.30
81895;DHT22;71358;45.642;13.758;2023-11-19T16:29:25;22.30;53.40
81895;DHT22;71358;45.642;13.758;2023-11-19T16:32:10;22.30;53.30
81895;DHT22;71358;45.642;13.758;2023-11-19T16:34:54;22.30;53.30
81895;DHT22;71358;45.642;13.758;2023-11-19T16:37:40;22.30;53.30
81895;DHT22;71358;45.642;13.758;2023-11-19T16:40:24;22.30;53.20
81895;DHT22;71358;45.642;13.758;2023-11-19T16:43:09;22.30;53.10
81895;DHT22;71358;45.642;13.758;2023-11-19T16:45:53;22.30;53.00
81895;DHT22;71358;45.642;13.758;2023-11-19T16:48:38;22.30;53.00
81895;DHT22;71358;45.642;13.758;2023-11-19T16:51:23;22.30;52.90
81895;DHT22;71358;45.642;13.758;2023-11-19T16:54:08;22.20;52.70
81895;DHT22;71358;45.642;13.758;2023-11-19T16:56:52;22.20;52.60
81895;DHT22;71358;45.642;13.758;2023-11-19T16:59:37;22.30;52.60
81895;DHT22;71358;45.642;13.758;2023-11-19T17:02:25;22.30;52.60
81895;DHT22;71358;45.642;13.758;2023-11-19T17:05:09;22.20;52.50
81895;DHT22;71358;45.642;13.758;2023-11-19T17:07:54;22.20;52.50
81895;DHT22;71358;45.642;13.758;2023-11-19T17:10:39;22.20;52.50
81895;DHT22;71358;45.642;13.758;2023-11-19T17:13:23;22.20;52.50
81895;DHT22;71358;45.642;13.758;2023-11-19T17:16:08;22.20;52.30
81895;DHT22;71358;45.642;13.758;2023-11-19T17:18:52;22.20;52.30
81895;DHT22;71358;45.642;13.758;2023-11-19T17:21:37;22.20;52.30
81895;DHT22;71358;45.642;13.758;2023-11-19T17:24:21;22.20;52.20
81895;DHT22;71358;45.642;13.758;2023-11-19T17:27:06;22.20;52.20
81895;DHT22;71358;45.642;13.758;2023-11-19T17:29:51;22.20;52.20